Date,TemperatureHighF,TemperatureAvgF,TemperatureLowF,DewpointHighF,DewpointAvgF,DewpointLowF,HumidityHigh,HumidityAvg,HumidityLow,PressureMaxIn,PressureMinIn,WindSpeedMaxMPH,WindSpeedAvgMPH,GustSpeedMaxMPH,PrecipitationSumIn
2013-1-1,48.5,45.7,42.1,48.5,39.6,26.4,100,81,46,30.21,30.04,17,5,21,0.23
2013-1-2,48.0,44.0,39.6,48.0,38.4,30.3,100,82,62,30.28,30.01,14,3,17,0.12
2013-1-3,42.2,37.5,26.0,32.2,29.0,24.0,92,72,58,30.40,30.25,6,2,9,0.00
2013-1-4,47.7,34.5,21.6,26.4,21.3,17.4,95,63,30,30.47,30.33,18,4,22,0.00
2013-1-5,48.8,37.5,23.8,27.8,21.5,15.8,85,55,27,30.52,30.33,9,2,12,0.00
2013-1-6,52.2,43.7,38.0,36.8,33.2,26.3,91,68,47,30.33,30.14,10,2,12,0.01
2013-1-7,49.8,37.8,26.9,31.4,27.8,23.9,93,70,42,30.54,30.31,13,2,17,0.00
2013-1-8,53.6,40.4,26.4,39.5,32.6,23.8,92,76,51,30.59,30.48,7,1,10,0.00
2013-1-9,61.2,48.7,34.4,49.7,42.9,32.9,96,81,62,30.57,30.47,13,1,15,0.00
2013-1-10,60.5,51.5,43.2,48.2,38.8,28.8,100,67,30,30.62,30.50,11,2,14,0.00
2013-1-11,51.1,44.0,41.2,44.1,42.4,39.8,100,95,66,30.50,30.28,11,3,15,0.04
2013-1-12,67.9,54.0,43.9,62.0,52.9,43.9,100,97,76,30.28,30.19,10,1,13,0.02
2013-1-13,71.6,63.7,53.9,60.0,57.5,53.9,100,81,62,30.22,30.12,25,10,31,0.00
2013-1-14,64.0,62.2,60.1,62.8,60.3,57.6,100,94,81,30.22,30.14,14,5,16,0.28
2013-1-15,55.3,43.1,40.1,55.3,42.6,39.4,100,98,95,30.32,30.19,18,7,25,0.50
2013-1-16,49.4,43.7,38.8,49.2,43.7,38.8,100,100,99,30.19,30.07,11,2,14,0.22
2013-1-17,48.9,44.6,33.7,48.9,44.0,32.0,100,98,92,30.13,29.98,27,9,37,0.87
2013-1-18,41.8,34.4,28.2,32.5,27.2,23.5,100,77,50,30.65,30.35,7,1,20,0.17
2013-1-19,51.6,35.3,22.2,30.5,25.8,20.5,95,72,35,30.62,30.26,14,3,20,0.00
2013-1-20,59.9,45.5,31.3,34.7,27.8,23.0,84,53,26,30.26,30.10,19,5,23,0.00
2013-1-21,56.6,41.5,27.0,34.6,24.7,10.3,91,57,25,30.18,29.99,22,6,27,0.00
2013-1-22,39.1,32.0,25.6,13.5,1.0,-6.2,45,27,20,30.39,30.08,20,7,26,0.00
2013-1-23,39.9,29.4,16.5,18.1,10.3,-0.7,79,47,27,30.49,30.16,17,4,22,0.00
2013-1-24,37.8,30.7,24.1,26.1,10.8,-1.9,82,46,24,30.62,30.08,25,7,33,0.00
2013-1-25,25.6,22.5,18.3,23.6,12.8,0.8,92,68,36,30.64,30.24,15,4,17,0.00
2013-1-26,38.9,30.1,25.0,34.0,27.7,23.6,98,91,67,30.51,30.22,9,2,12,0.06
2013-1-27,41.1,33.2,23.9,27.1,23.6,18.0,80,68,55,30.71,30.51,12,3,16,0.00
2013-1-28,48.0,41.0,33.4,45.5,34.1,25.9,94,77,60,30.60,30.34,17,6,22,0.02
2013-1-29,70.8,55.6,38.8,58.2,49.6,38.8,100,82,58,30.35,30.12,21,7,25,0.00
2013-1-30,72.0,65.4,55.1,63.2,59.5,51.6,95,82,60,30.12,29.48,34,20,47,0.66
2013-1-31,55.0,42.2,34.3,51.5,25.0,16.1,88,52,34,30.12,29.55,33,14,44,0.01